sensor_id;sensor_type;location;lat;lon;timestamp;pressure;altitude;pressure_sealevel;temperature;humidity
10060;BME280;5069;49.306;8.636;2023-02-28T00:00:18;101469.53;;;1.43;56.41
10060;BME280;5069;49.306;8.636;2023-02-28T00:03:19;101474.69;;;1.40;56.49
10060;BME280;5069;49.306;8.636;2023-02-28T00:06:21;101464.28;;;1.40;56.59
10060;BME280;5069;49.306;8.636;2023-02-28T00:09:23;101468.78;;;1.47;56.95
10060;BME280;5069;49.306;8.636;2023-02-28T00:12:24;101466.72;;;1.32;56.30
10060;BME280;5069;49.306;8.636;2023-02-28T00:15:26;101472.75;;;1.30;57.15
10060;BME280;5069;49.306;8.636;2023-02-28T00:18:28;101469.22;;;1.28;57.04
10060;BME280;5069;49.306;8.636;2023-02-28T00:21:31;101465.84;;;1.30;56.90
10060;BME280;5069;49.306;8.636;2023-02-28T00:24:33;101460.69;;;1.33;56.85
10060;BME280;5069;49.306;8.636;2023-02-28T00:27:35;101458.06;;;1.32;56.95
10060;BME280;5069;49.306;8.636;2023-02-28T00:30:38;101463.13;;;1.25;57.49
10060;BME280;5069;49.306;8.636;2023-02-28T00:33:40;101458.84;;;1.28;57.68
10060;BME280;5069;49.306;8.636;2023-02-28T00:36:41;101463.16;;;1.27;57.12
10060;BME280;5069;49.306;8.636;2023-02-28T00:39:46;101462.28;;;1.27;57.88
10060;BME280;5069;49.306;8.636;2023-02-28T00:42:49;101461.31;;;1.21;57.99
10060;BME280;5069;49.306;8.636;2023-02-28T00:45:51;101462.78;;;1.10;58.76
10060;BME280;5069;49.306;8.636;2023-02-28T00:48:52;101463.63;;;1.09;58.21
10060;BME280;5069;49.306;8.636;2023-02-28T00:51:55;101467.06;;;1.08;58.79
10060;BME280;5069;49.306;8.636;2023-02-28T00:54:56;101467.06;;;1.08;59.29
10060;BME280;5069;49.306;8.636;2023-02-28T00:57:58;101465.41;;;1.10;59.32
10060;BME280;5069;49.306;8.636;2023-02-28T01:01:00;101463.72;;;1.12;59.40
10060;BME280;5069;49.306;8.636;2023-02-28T01:04:01;101464.50;;;1.10;59.55
10060;BME280;5069;49.306;8.636;2023-02-28T01:07:03;101467.16;;;1.11;59.44
10060;BME280;5069;49.306;8.636;2023-02-28T01:10:04;101465.25;;;1.04;59.97
10060;BME280;5069;49.306;8.636;2023-02-28T01:13:06;101456.56;;;1.02;60.50
10060;BME280;5069;49.306;8.636;2023-02-28T01:16:12;101464.56;;;1.11;60.03
10060;BME280;5069;49.306;8.636;2023-02-28T01:19:14;101467.94;;;1.09;60.75
10060;BME280;5069;49.306;8.636;2023-02-28T01:22:15;101460.97;;;1.06;61.05
10060;BME280;5069;49.306;8.636;2023-02-28T01:25:17;101466.97;;;1.02;60.95
10060;BME280;5069;49.306;8.636;2023-02-28T01:28:18;101464.38;;;1.04;60.92
10060;BME280;5069;49.306;8.636;2023-02-28T01:31:20;101462.53;;;0.98;61.46
10060;BME280;5069;49.306;8.636;2023-02-28T01:34:22;101453.84;;;0.98;61.93
10060;BME280;5069;49.306;8.636;2023-02-28T01:37:25;101461.63;;;0.96;61.82
10060;BME280;5069;49.306;8.636;2023-02-28T01:40:26;101463.34;;;0.97;61.97
10060;BME280;5069;49.306;8.636;2023-02-28T01:46:54;101464.84;;;0.86;62.56
10060;BME280;5069;49.306;8.636;2023-02-28T01:49:55;101453.47;;;0.81;62.89
10060;BME280;5069;49.306;8.636;2023-02-28T01:53:00;101456.06;;;0.81;62.91
10060;BME280;5069;49.306;8.636;2023-02-28T01:56:06;101456.91;;;0.78;62.66
10060;BME280;5069;49.306;8.636;2023-02-28T01:59:12;101454.25;;;0.77;63.22
10060;BME280;5069;49.306;8.636;2023-02-28T02:02:16;101443.88;;;0.77;63.22
10060;BME280;5069;49.306;8.636;2023-02-28T02:05:24;101447.25;;;0.74;63.45
10060;BME280;5069;49.306;8.636;2023-02-28T02:08:28;101442.06;;;0.73;63.74
10060;BME280;5069;49.306;8.636;2023-02-28T02:11:30;101448.94;;;0.71;63.90
10060;BME280;5069;49.306;8.636;2023-02-28T02:14:43;101441.22;;;0.74;63.64
10060;BME280;5069;49.306;8.636;2023-02-28T02:17:52;101439.38;;;0.68;63.89
10060;BME280;5069;49.306;8.636;2023-02-28T02:35:40;101439.97;;;0.57;65.21
10060;BME280;5069;49.306;8.636;2023-02-28T02:39:00;101429.59;;;0.57;65.41
10060;BME280;5069;49.306;8.636;2023-02-28T02:42:11;101435.63;;;0.57;65.59
10060;BME280;5069;49.306;8.636;2023-02-28T02:45:21;101429.59;;;0.57;65.42
10060;BME280;5069;49.306;8.636;2023-02-28T02:48:30;101432.91;;;0.51;66.01
10060;BME280;5069;49.306;8.636;2023-02-28T02:51:33;101431.88;;;0.45;66.25
10060;BME280;5069;49.306;8.636;2023-02-28T02:54:38;101431.09;;;0.49;66.37
10060;BME280;5069;49.306;8.636;2023-02-28T02:57:51;101427.84;;;0.57;65.78
10060;BME280;5069;49.306;8.636;2023-02-28T03:00:58;101432.09;;;0.54;65.74
10060;BME280;5069;49.306;8.636;2023-02-28T03:04:16;101431.91;;;0.46;66.53
10060;BME280;5069;49.306;8.636;2023-02-28T03:07:21;101426.69;;;0.45;66.76
10060;BME280;5069;49.306;8.636;2023-02-28T03:10:43;101424.09;;;0.45;66.75
10060;BME280;5069;49.306;8.636;2023-02-28T03:24:01;101429.06;;;0.35;67.22
10060;BME280;5069;49.306;8.636;2023-02-28T03:27:12;101428.25;;;0.38;66.96
10060;BME280;5069;49.306;8.636;2023-02-28T03:30:26;101426.47;;;0.35;67.19
10060;BME280;5069;49.306;8.636;2023-02-28T03:33:36;101430.59;;;0.27;67.54
10060;BME280;5069;49.306;8.636;2023-02-28T03:36:44;101432.28;;;0.25;67.88
10060;BME280;5069;49.306;8.636;2023-02-28T03:39:50;101429.78;;;0.28;67.90
10060;BME280;5069;49.306;8.636;2023-02-28T03:43:00;101435.78;;;0.27;67.59
10060;BME280;5069;49.306;8.636;2023-02-28T03:46:07;101435.06;;;0.33;67.49
10060;BME280;5069;49.306;8.636;2023-02-28T03:49:23;101431.63;;;0.34;67.47
10060;BME280;5069;49.306;8.636;2023-02-28T03:52:30;101431.63;;;0.34;67.59
10060;BME280;5069;49.306;8.636;2023-02-28T03:55:40;101433.03;;;0.21;68.11
10060;BME280;5069;49.306;8.636;2023-02-28T04:02:03;101427.59;;;0.12;69.14
10060;BME280;5069;49.306;8.636;2023-02-28T04:05:06;101438.84;;;0.11;69.70
10060;BME280;5069;49.306;8.636;2023-02-28T04:08:08;101444.94;;;0.13;69.13
10060;BME280;5069;49.306;8.636;2023-02-28T04:11:25;101427.81;;;0.20;69.00
10060;BME280;5069;49.306;8.636;2023-02-28T04:14:30;101442.34;;;0.13;69.25
10060;BME280;5069;49.306;8.636;2023-02-28T04:17:31;101431.09;;;0.13;69.66
10060;BME280;5069;49.306;8.636;2023-02-28T04:20:33;101437.16;;;0.13;69.68
10060;BME280;5069;49.306;8.636;2023-02-28T04:23:34;101437.00;;;0.07;70.14
10060;BME280;5069;49.306;8.636;2023-02-28T04:26:36;101431.97;;;0.13;69.62
10060;BME280;5069;49.306;8.636;2023-02-28T04:29:38;101435.53;;;0.18;69.40
10060;BME280;5069;49.306;8.636;2023-02-28T04:32:39;101440.56;;;0.12;69.72
10060;BME280;5069;49.306;8.636;2023-02-28T04:35:41;101438.03;;;0.14;69.94
10060;BME280;5069;49.306;8.636;2023-02-28T04:38:42;101433.72;;;0.14;70.26
10060;BME280;5069;49.306;8.636;2023-02-28T04:41:44;101434.72;;;0.19;69.91
10060;BME280;5069;49.306;8.636;2023-02-28T04:44:46;101431.28;;;0.20;69.62
10060;BME280;5069;49.306;8.636;2023-02-28T04:47:48;101438.44;;;0.30;69.89
10060;BME280;5069;49.306;8.636;2023-02-28T04:50:50;101434.03;;;0.26;69.34
10060;BME280;5069;49.306;8.636;2023-02-28T04:53:52;101433.91;;;0.22;69.89
10060;BME280;5069;49.306;8.636;2023-02-28T04:56:53;101432.38;;;0.28;69.64
10060;BME280;5069;49.306;8.636;2023-02-28T04:59:55;101435.69;;;0.24;69.50
10060;BME280;5069;49.306;8.636;2023-02-28T05:02:57;101441.19;;;0.36;69.06
10060;BME280;5069;49.306;8.636;2023-02-28T05:05:58;101441.91;;;0.31;69.19
10060;BME280;5069;49.306;8.636;2023-02-28T05:09:00;101437.56;;;0.28;69.63
10060;BME280;5069;49.306;8.636;2023-02-28T05:12:01;101441.28;;;0.39;69.10
10060;BME280;5069;49.306;8.636;2023-02-28T05:15:03;101437.91;;;0.44;68.79
10060;BME280;5069;49.306;8.636;2023-02-28T05:18:07;101441.44;;;0.46;68.64
10060;BME280;5069;49.306;8.636;2023-02-28T05:21:23;101440.75;;;0.54;68.15
10060;BME280;5069;49.306;8.636;2023-02-28T05:24:25;101445.16;;;0.57;68.01
10060;BME280;5069;49.306;8.636;2023-02-28T05:27:27;101451.06;;;0.51;68.23
10060;BME280;5069;49.306;8.636;2023-02-28T05:30:29;101450.25;;;0.54;67.92
10060;BME280;5069;49.306;8.636;2023-02-28T05:33:31;101457.44;;;0.65;67.18
10060;BME280;5069;49.306;8.636;2023-02-28T05:36:33;101454.81;;;0.64;67.67
10060;BME280;5069;49.306;8.636;2023-02-28T05:39:34;101445.22;;;0.60;67.81
10060;BME280;5069;49.306;8.636;2023-02-28T05:42:36;101453.03;;;0.61;67.50
10060;BME280;5069;49.306;8.636;2023-02-28T05:45:38;101459.13;;;0.63;67.38
10060;BME280;5069;49.306;8.636;2023-02-28T05:48:41;101465.09;;;0.59;67.75
10060;BME280;5069;49.306;8.636;2023-02-28T05:51:43;101462.75;;;0.70;66.81
10060;BME280;5069;49.306;8.636;2023-02-28T05:54:46;101459.16;;;0.65;66.99
10060;BME280;5069;49.306;8.636;2023-02-28T05:57:47;101464.50;;;0.71;67.61
10060;BME280;5069;49.306;8.636;2023-02-28T06:00:49;101459.31;;;0.71;66.95
10060;BME280;5069;49.306;8.636;2023-02-28T06:03:50;101462.09;;;0.78;66.82
10060;BME280;5069;49.306;8.636;2023-02-28T06:06:52;101466.25;;;0.72;66.86
10060;BME280;5069;49.306;8.636;2023-02-28T06:09:53;101468.66;;;0.64;67.42
10060;BME280;5069;49.306;8.636;2023-02-28T06:12:55;101468.75;;;0.69;67.23
10060;BME280;5069;49.306;8.636;2023-02-28T06:15:56;101467.91;;;0.68;67.18
10060;BME280;5069;49.306;8.636;2023-02-28T06:18:59;101472.09;;;0.62;67.87
10060;BME280;5069;49.306;8.636;2023-02-28T06:22:00;101478.94;;;0.60;67.51
10060;BME280;5069;49.306;8.636;2023-02-28T06:25:06;101480.91;;;0.68;67.58
10060;BME280;5069;49.306;8.636;2023-02-28T06:28:07;101473.06;;;0.67;67.66
10060;BME280;5069;49.306;8.636;2023-02-28T06:31:15;101480.00;;;0.68;67.28
10060;BME280;5069;49.306;8.636;2023-02-28T06:34:18;101475.63;;;0.65;67.21
10060;BME280;5069;49.306;8.636;2023-02-28T06:37:19;101482.41;;;0.60;67.42
10060;BME280;5069;49.306;8.636;2023-02-28T06:40:21;101491.84;;;0.57;68.19
10060;BME280;5069;49.306;8.636;2023-02-28T06:43:24;101486.13;;;0.71;67.93
10060;BME280;5069;49.306;8.636;2023-02-28T06:46:25;101487.22;;;0.81;66.92
10060;BME280;5069;49.306;8.636;2023-02-28T06:49:27;101487.22;;;0.81;66.87
10060;BME280;5069;49.306;8.636;2023-02-28T06:52:29;101493.00;;;0.68;66.96
10060;BME280;5069;49.306;8.636;2023-02-28T06:55:30;101491.97;;;0.63;67.54
10060;BME280;5069;49.306;8.636;2023-02-28T06:58:33;101489.38;;;0.63;67.98
10060;BME280;5069;49.306;8.636;2023-02-28T07:01:34;101506.22;;;0.80;66.91
10060;BME280;5069;49.306;8.636;2023-02-28T07:04:36;101495.34;;;0.95;66.90
10060;BME280;5069;49.306;8.636;2023-02-28T07:07:37;101503.91;;;0.92;66.08
10060;BME280;5069;49.306;8.636;2023-02-28T07:10:41;101509.41;;;1.04;66.42
10060;BME280;5069;49.306;8.636;2023-02-28T07:13:43;101510.31;;;1.06;65.97
10060;BME280;5069;49.306;8.636;2023-02-28T07:16:44;101519.41;;;1.27;65.21
10060;BME280;5069;49.306;8.636;2023-02-28T07:19:47;101524.56;;;1.23;65.42
10060;BME280;5069;49.306;8.636;2023-02-28T07:22:48;101524.84;;;1.36;64.88
10060;BME280;5069;49.306;8.636;2023-02-28T07:25:56;101513.91;;;1.52;64.52
10060;BME280;5069;49.306;8.636;2023-02-28T07:28:57;101515.69;;;1.54;64.44
10060;BME280;5069;49.306;8.636;2023-02-28T07:31:59;101522.59;;;1.52;64.33
10060;BME280;5069;49.306;8.636;2023-02-28T07:35:00;101522.84;;;1.64;63.30
10060;BME280;5069;49.306;8.636;2023-02-28T07:38:02;101521.28;;;1.73;62.95
10060;BME280;5069;49.306;8.636;2023-02-28T07:41:04;101526.59;;;1.79;62.75
10060;BME280;5069;49.306;8.636;2023-02-28T07:44:05;101520.75;;;1.90;62.15
10060;BME280;5069;49.306;8.636;2023-02-28T07:47:08;101526.09;;;1.96;63.00
10060;BME280;5069;49.306;8.636;2023-02-28T07:50:12;101527.88;;;2.00;62.36
10060;BME280;5069;49.306;8.636;2023-02-28T07:53:14;101521.88;;;2.03;62.04
10060;BME280;5069;49.306;8.636;2023-02-28T07:56:15;101529.03;;;2.15;62.14
10060;BME280;5069;49.306;8.636;2023-02-28T07:59:17;101520.91;;;1.98;61.77
10060;BME280;5069;49.306;8.636;2023-02-28T08:02:18;101520.94;;;1.99;62.02
10060;BME280;5069;49.306;8.636;2023-02-28T08:05:20;101520.28;;;2.10;62.23
10060;BME280;5069;49.306;8.636;2023-02-28T08:08:22;101520.59;;;2.26;61.10
10060;BME280;5069;49.306;8.636;2023-02-28T08:11:24;101524.78;;;2.20;61.69
10060;BME280;5069;49.306;8.636;2023-02-28T08:14:26;101524.94;;;2.29;61.80
10060;BME280;5069;49.306;8.636;2023-02-28T08:17:28;101525.13;;;2.38;61.23
10060;BME280;5069;49.306;8.636;2023-02-28T08:20:30;101519.53;;;2.68;60.10
10060;BME280;5069;49.306;8.636;2023-02-28T08:23:31;101525.91;;;2.85;59.28
10060;BME280;5069;49.306;8.636;2023-02-28T08:26:34;101521.31;;;2.69;59.61
10060;BME280;5069;49.306;8.636;2023-02-28T08:29:39;101515.28;;;2.71;60.09
10060;BME280;5069;49.306;8.636;2023-02-28T08:32:40;101510.31;;;2.86;59.82
10060;BME280;5069;49.306;8.636;2023-02-28T08:35:42;101515.56;;;2.89;59.05
10060;BME280;5069;49.306;8.636;2023-02-28T08:38:43;101521.47;;;2.79;59.00
10060;BME280;5069;49.306;8.636;2023-02-28T08:41:45;101513.66;;;2.79;59.07
10060;BME280;5069;49.306;8.636;2023-02-28T08:44:51;101515.47;;;2.85;58.68
10060;BME280;5069;49.306;8.636;2023-02-28T08:47:54;101517.28;;;2.87;58.57
10060;BME280;5069;49.306;8.636;2023-02-28T08:51:16;101510.47;;;2.96;58.26
10060;BME280;5069;49.306;8.636;2023-02-28T08:54:19;101516.94;;;3.23;57.79
10060;BME280;5069;49.306;8.636;2023-02-28T08:57:21;101518.75;;;3.29;57.21
10060;BME280;5069;49.306;8.636;2023-02-28T09:00:22;101518.72;;;3.27;57.25
10060;BME280;5069;49.306;8.636;2023-02-28T09:03:24;101518.03;;;3.39;55.92
10060;BME280;5069;49.306;8.636;2023-02-28T09:06:26;101525.91;;;3.44;57.18
10060;BME280;5069;49.306;8.636;2023-02-28T09:09:28;101525.06;;;3.48;56.62
10060;BME280;5069;49.306;8.636;2023-02-28T09:12:33;101527.63;;;3.42;56.25
10060;BME280;5069;49.306;8.636;2023-02-28T09:15:37;101524.31;;;3.55;56.15
10060;BME280;5069;49.306;8.636;2023-02-28T09:18:39;101521.72;;;3.56;55.94
10060;BME280;5069;49.306;8.636;2023-02-28T09:21:41;101526.16;;;3.65;55.58
10060;BME280;5069;49.306;8.636;2023-02-28T09:24:42;101521.06;;;3.72;55.37
10060;BME280;5069;49.306;8.636;2023-02-28T09:27:46;101519.41;;;3.79;54.69
10060;BME280;5069;49.306;8.636;2023-02-28T09:30:50;101521.25;;;3.86;54.33
10060;BME280;5069;49.306;8.636;2023-02-28T09:33:54;101524.66;;;3.84;54.91
10060;BME280;5069;49.306;8.636;2023-02-28T09:36:56;101517.81;;;3.92;54.63
10060;BME280;5069;49.306;8.636;2023-02-28T09:39:57;101515.34;;;4.05;54.63
10060;BME280;5069;49.306;8.636;2023-02-28T09:42:59;101516.41;;;4.23;53.21
10060;BME280;5069;49.306;8.636;2023-02-28T09:49:31;101513.88;;;4.33;53.00
10060;BME280;5069;49.306;8.636;2023-02-28T09:52:35;101514.53;;;4.09;53.22
10060;BME280;5069;49.306;8.636;2023-02-28T09:55:42;101517.78;;;3.87;53.31
10060;BME280;5069;49.306;8.636;2023-02-28T09:58:49;101520.38;;;3.87;53.55
10060;BME280;5069;49.306;8.636;2023-02-28T10:02:20;101513.91;;;4.32;52.99
10060;BME280;5069;49.306;8.636;2023-02-28T10:05:49;101512.34;;;4.53;52.28
10060;BME280;5069;49.306;8.636;2023-02-28T10:09:05;101516.97;;;4.86;51.65
10060;BME280;5069;49.306;8.636;2023-02-28T10:12:09;101507.28;;;4.72;51.48
10060;BME280;5069;49.306;8.636;2023-02-28T10:15:16;101512.41;;;4.60;51.50
10060;BME280;5069;49.306;8.636;2023-02-28T10:18:22;101510.53;;;4.43;51.87
10060;BME280;5069;49.306;8.636;2023-02-28T10:21:31;101516.75;;;4.59;50.93
10060;BME280;5069;49.306;8.636;2023-02-28T10:24:45;101514.31;;;4.82;51.41
10060;BME280;5069;49.306;8.636;2023-02-28T10:27:47;101518.00;;;5.07;50.49
10060;BME280;5069;49.306;8.636;2023-02-28T10:30:51;101516.44;;;5.37;50.06
10060;BME280;5069;49.306;8.636;2023-02-28T10:33:53;101516.19;;;4.95;50.15
10060;BME280;5069;49.306;8.636;2023-02-28T10:36:55;101522.41;;;5.17;49.70
10060;BME280;5069;49.306;8.636;2023-02-28T10:39:56;101512.00;;;5.24;49.52
10060;BME280;5069;49.306;8.636;2023-02-28T10:42:59;101508.53;;;5.27;48.98
10060;BME280;5069;49.306;8.636;2023-02-28T10:49:19;101517.28;;;5.29;49.03
10060;BME280;5069;49.306;8.636;2023-02-28T10:52:40;101515.53;;;5.31;48.69
10060;BME280;5069;49.306;8.636;2023-02-28T10:55:42;101515.63;;;5.51;48.65
10060;BME280;5069;49.306;8.636;2023-02-28T10:58:54;101509.47;;;5.39;48.84
10060;BME280;5069;49.306;8.636;2023-02-28T11:01:56;101511.34;;;5.65;48.29
10060;BME280;5069;49.306;8.636;2023-02-28T11:04:57;101504.34;;;5.59;48.40
10060;BME280;5069;49.306;8.636;2023-02-28T11:08:05;101497.38;;;5.66;47.57
10060;BME280;5069;49.306;8.636;2023-02-28T11:11:07;101499.13;;;5.61;47.94
10060;BME280;5069;49.306;8.636;2023-02-28T11:14:25;101500.06;;;5.81;47.92
10060;BME280;5069;49.306;8.636;2023-02-28T11:17:30;101492.31;;;6.02;48.15
10060;BME280;5069;49.306;8.636;2023-02-28T11:20:33;101485.38;;;6.13;47.13
10060;BME280;5069;49.306;8.636;2023-02-28T11:23:36;101487.13;;;6.20;47.58
10060;BME280;5069;49.306;8.636;2023-02-28T11:26:46;101487.06;;;5.90;48.03
10060;BME280;5069;49.306;8.636;2023-02-28T11:29:49;101477.47;;;5.92;47.76
10060;BME280;5069;49.306;8.636;2023-02-28T11:32:51;101472.25;;;6.06;47.82
10060;BME280;5069;49.306;8.636;2023-02-28T11:35:57;101481.03;;;6.35;46.78
10060;BME280;5069;49.306;8.636;2023-02-28T11:39:04;101473.19;;;6.37;45.94
10060;BME280;5069;49.306;8.636;2023-02-28T11:42:38;101481.91;;;6.43;46.82
10060;BME280;5069;49.306;8.636;2023-02-28T11:53:14;101480.94;;;5.94;47.49
10060;BME280;5069;49.306;8.636;2023-02-28T11:56:33;101472.25;;;6.01;47.27
10060;BME280;5069;49.306;8.636;2023-02-28T12:03:17;101466.19;;;6.20;46.48
10060;BME280;5069;49.306;8.636;2023-02-28T12:06:45;101469.66;;;6.80;45.15
10060;BME280;5069;49.306;8.636;2023-02-28T12:10:05;101479.25;;;6.84;45.00
10060;BME280;5069;49.306;8.636;2023-02-28T12:13:20;101467.03;;;6.91;44.91
10060;BME280;5069;49.306;8.636;2023-02-28T12:23:24;101468.41;;;7.92;42.29
10060;BME280;5069;49.306;8.636;2023-02-28T12:26:38;101465.78;;;7.94;43.51
10060;BME280;5069;49.306;8.636;2023-02-28T12:29:50;101472.13;;;7.52;42.60
10060;BME280;5069;49.306;8.636;2023-02-28T12:33:08;101461.50;;;7.79;42.42
10060;BME280;5069;49.306;8.636;2023-02-28T12:36:13;101463.44;;;7.24;43.63
10060;BME280;5069;49.306;8.636;2023-02-28T12:39:23;101457.16;;;7.70;42.63
10060;BME280;5069;49.306;8.636;2023-02-28T12:42:30;101456.88;;;8.19;42.38
10060;BME280;5069;49.306;8.636;2023-02-28T12:45:46;101453.38;;;8.20;42.59
10060;BME280;5069;49.306;8.636;2023-02-28T12:48:55;101441.13;;;8.19;41.98
10060;BME280;5069;49.306;8.636;2023-02-28T12:52:00;101445.50;;;8.20;41.10
10060;BME280;5069;49.306;8.636;2023-02-28T12:55:07;101443.69;;;8.22;41.84
10060;BME280;5069;49.306;8.636;2023-02-28T13:05:19;101432.31;;;8.31;41.98
10060;BME280;5069;49.306;8.636;2023-02-28T13:11:53;101431.13;;;8.65;41.75
10060;BME280;5069;49.306;8.636;2023-02-28T13:15:17;101441.56;;;8.73;41.22
10060;BME280;5069;49.306;8.636;2023-02-28T13:18:44;101423.16;;;8.73;41.60
10060;BME280;5069;49.306;8.636;2023-02-28T13:21:47;101435.47;;;8.70;41.46
10060;BME280;5069;49.306;8.636;2023-02-28T13:24:55;101436.41;;;8.63;40.99
10060;BME280;5069;49.306;8.636;2023-02-28T13:27:58;101431.88;;;8.78;41.31
10060;BME280;5069;49.306;8.636;2023-02-28T13:31:04;101432.66;;;8.86;41.22
10060;BME280;5069;49.306;8.636;2023-02-28T13:34:13;101428.66;;;8.45;40.74
10060;BME280;5069;49.306;8.636;2023-02-28T13:40:31;101426.00;;;8.50;40.61
10060;BME280;5069;49.306;8.636;2023-02-28T13:44:08;101432.56;;;8.95;40.72
10060;BME280;5069;49.306;8.636;2023-02-28T13:47:16;101431.50;;;9.14;40.21
10060;BME280;5069;49.306;8.636;2023-02-28T13:50:30;101424.72;;;8.90;40.25
10060;BME280;5069;49.306;8.636;2023-02-28T13:53:40;101445.94;;;8.77;41.38
10060;BME280;5069;49.306;8.636;2023-02-28T13:57:04;101420.34;;;8.91;39.57
10060;BME280;5069;49.306;8.636;2023-02-28T14:04:01;101442.03;;;8.09;41.20
10060;BME280;5069;49.306;8.636;2023-02-28T14:07:08;101441.22;;;8.01;42.00
10060;BME280;5069;49.306;8.636;2023-02-28T14:10:29;101440.31;;;8.05;41.69
10060;BME280;5069;49.306;8.636;2023-02-28T14:13:58;101435.06;;;8.03;41.63
10060;BME280;5069;49.306;8.636;2023-02-28T14:17:01;101425.09;;;8.52;40.49
10060;BME280;5069;49.306;8.636;2023-02-28T14:20:03;101426.59;;;8.81;40.81
10060;BME280;5069;49.306;8.636;2023-02-28T14:30:28;101428.94;;;9.06;39.54
10060;BME280;5069;49.306;8.636;2023-02-28T14:36:52;101426.25;;;9.12;39.76
10060;BME280;5069;49.306;8.636;2023-02-28T14:39:54;101428.69;;;9.29;39.87
10060;BME280;5069;49.306;8.636;2023-02-28T14:43:05;101429.63;;;9.24;40.02
10060;BME280;5069;49.306;8.636;2023-02-28T14:46:07;101422.06;;;8.95;40.17
10060;BME280;5069;49.306;8.636;2023-02-28T14:49:21;101439.81;;;8.73;40.90
10060;BME280;5069;49.306;8.636;2023-02-28T14:52:27;101422.66;;;8.26;40.98
10060;BME280;5069;49.306;8.636;2023-02-28T14:55:32;101428.78;;;8.27;41.98
10060;BME280;5069;49.306;8.636;2023-02-28T14:58:35;101431.25;;;8.50;41.53
10060;BME280;5069;49.306;8.636;2023-02-28T15:01:36;101432.03;;;8.61;41.39
10060;BME280;5069;49.306;8.636;2023-02-28T15:04:38;101437.69;;;8.05;41.96
10060;BME280;5069;49.306;8.636;2023-02-28T15:07:39;101441.56;;;7.40;42.59
10060;BME280;5069;49.306;8.636;2023-02-28T15:10:49;101444.16;;;7.44;43.60
10060;BME280;5069;49.306;8.636;2023-02-28T15:13:53;101439.91;;;7.12;44.14
10060;BME280;5069;49.306;8.636;2023-02-28T15:17:00;101439.88;;;7.21;44.37
10060;BME280;5069;49.306;8.636;2023-02-28T15:20:03;101439.88;;;7.22;43.96
10060;BME280;5069;49.306;8.636;2023-02-28T15:23:05;101436.41;;;7.06;44.48
10060;BME280;5069;49.306;8.636;2023-02-28T15:26:09;101442.53;;;6.96;45.21
10060;BME280;5069;49.306;8.636;2023-02-28T15:29:19;101438.19;;;6.89;45.18
10060;BME280;5069;49.306;8.636;2023-02-28T15:32:30;101441.69;;;6.91;45.21
10060;BME280;5069;49.306;8.636;2023-02-28T15:35:33;101439.06;;;6.84;45.33
10060;BME280;5069;49.306;8.636;2023-02-28T15:38:35;101440.81;;;6.91;45.21
10060;BME280;5069;49.306;8.636;2023-02-28T15:41:37;101449.53;;;6.96;45.24
10060;BME280;5069;49.306;8.636;2023-02-28T15:44:39;101442.56;;;6.99;44.85
10060;BME280;5069;49.306;8.636;2023-02-28T15:47:45;101446.09;;;6.62;45.74
10060;BME280;5069;49.306;8.636;2023-02-28T15:50:51;101447.00;;;6.49;45.74
10060;BME280;5069;49.306;8.636;2023-02-28T15:54:20;101440.00;;;6.23;46.11
10060;BME280;5069;49.306;8.636;2023-02-28T15:57:28;101437.38;;;6.25;46.45
10060;BME280;5069;49.306;8.636;2023-02-28T16:00:31;101441.72;;;6.06;47.04
10060;BME280;5069;49.306;8.636;2023-02-28T16:03:40;101435.63;;;6.13;46.66
10060;BME280;5069;49.306;8.636;2023-02-28T16:06:46;101436.47;;;6.21;46.79
10060;BME280;5069;49.306;8.636;2023-02-28T16:10:01;101433.00;;;6.16;46.67
10060;BME280;5069;49.306;8.636;2023-02-28T16:13:03;101433.00;;;6.12;46.78
10060;BME280;5069;49.306;8.636;2023-02-28T16:16:05;101434.72;;;6.04;46.90
10060;BME280;5069;49.306;8.636;2023-02-28T16:19:08;101436.47;;;6.05;46.69
10060;BME280;5069;49.306;8.636;2023-02-28T16:22:09;101435.59;;;6.06;47.08
10060;BME280;5069;49.306;8.636;2023-02-28T16:25:16;101444.31;;;5.99;47.20
10060;BME280;5069;49.306;8.636;2023-02-28T16:28:21;101444.25;;;5.80;47.66
10060;BME280;5069;49.306;8.636;2023-02-28T16:31:25;101439.84;;;5.72;47.94
10060;BME280;5069;49.306;8.636;2023-02-28T16:34:26;101452.94;;;5.67;48.11
10060;BME280;5069;49.306;8.636;2023-02-28T16:37:28;101457.31;;;5.79;47.74
10060;BME280;5069;49.306;8.636;2023-02-28T16:40:34;101456.47;;;5.85;47.91
10060;BME280;5069;49.306;8.636;2023-02-28T16:43:37;101461.66;;;5.75;48.25
10060;BME280;5069;49.306;8.636;2023-02-28T16:46:39;101466.84;;;5.65;48.13
10060;BME280;5069;49.306;8.636;2023-02-28T16:49:41;101474.72;;;5.62;48.55
10060;BME280;5069;49.306;8.636;2023-02-28T16:52:44;101465.13;;;5.58;48.48
10060;BME280;5069;49.306;8.636;2023-02-28T16:55:45;101476.34;;;5.41;48.39
10060;BME280;5069;49.306;8.636;2023-02-28T16:58:49;101479.78;;;5.31;49.08
10060;BME280;5069;49.306;8.636;2023-02-28T17:01:51;101477.22;;;5.39;48.56
10060;BME280;5069;49.306;8.636;2023-02-28T17:04:53;101474.59;;;5.36;48.79
10060;BME280;5069;49.306;8.636;2023-02-28T17:07:54;101485.00;;;5.25;48.90
10060;BME280;5069;49.306;8.636;2023-02-28T17:10:56;101482.41;;;5.28;48.93
10060;BME280;5069;49.306;8.636;2023-02-28T17:13:57;101491.94;;;5.20;49.06
10060;BME280;5069;49.306;8.636;2023-02-28T17:16:59;101491.00;;;5.11;49.58
10060;BME280;5069;49.306;8.636;2023-02-28T17:20:00;101505.78;;;5.04;49.59
10060;BME280;5069;49.306;8.636;2023-02-28T17:23:02;101499.69;;;5.04;49.86
10060;BME280;5069;49.306;8.636;2023-02-28T17:26:04;101493.47;;;4.88;49.50
10060;BME280;5069;49.306;8.636;2023-02-28T17:29:19;101507.41;;;4.90;49.90
10060;BME280;5069;49.306;8.636;2023-02-28T17:32:21;101506.56;;;4.92;49.93
10060;BME280;5069;49.306;8.636;2023-02-28T17:35:23;101507.44;;;4.96;49.89
10060;BME280;5069;49.306;8.636;2023-02-28T17:38:25;101507.44;;;4.93;50.14
10060;BME280;5069;49.306;8.636;2023-02-28T17:41:26;101517.84;;;4.87;50.23
10060;BME280;5069;49.306;8.636;2023-02-28T17:44:28;101510.91;;;4.92;50.29
10060;BME280;5069;49.306;8.636;2023-02-28T17:47:29;101507.44;;;4.91;50.57
10060;BME280;5069;49.306;8.636;2023-02-28T17:50:31;101513.47;;;4.86;50.71
10060;BME280;5069;49.306;8.636;2023-02-28T17:53:33;101513.50;;;4.90;50.44
10060;BME280;5069;49.306;8.636;2023-02-28T17:56:34;101509.09;;;4.82;50.49